Orsa, Belarus
Current Conditions -  °F | °C
As of 4:00 PM on Saturday 20 Dec 2014 (Local Time) from UMII Reporting Station
Broken Clouds Broken Clouds  
Wind Chill: 29°   Ceiling: 2300
Heat Index: 37°   Visibility: 4mi
Dew Point: 32°   Wind: 13mph
Humidity: 81%   Direction: 220°SW
Pressure: 29.47"   Gusts: 20mph
Location:  55°N, 30.42°E
Report Text: UMII 201400Z 22006G09MPS P6000 BKN023CB 03/M00 Q0998 R23/290150NOSIG
Loading
Personal Weather Stations






























Interactive Weather Map New forecast layout! Learn more

10-Day Weather Forecast

Advertisements
Track Severe Weather on mobile